createdAt,value
2018-11-06T00:00:53.038Z,53.23
2018-11-06T00:03:02.206Z,62.13
2018-11-06T00:05:12.126Z,51.03
2018-11-06T00:07:16.156Z,54.40
2018-11-06T00:09:20.874Z,57.63
2018-11-06T00:11:24.867Z,60.70
2018-11-06T00:13:29.047Z,55.57
2018-11-06T00:15:33.707Z,50.13
2018-11-06T00:17:38.792Z,51.33
2018-11-06T00:19:42.925Z,62.90
2018-11-06T00:21:46.949Z,73.77
2018-11-06T00:23:51.654Z,67.87
2018-11-06T00:25:55.744Z,99.00
2018-11-06T00:27:59.887Z,195.87
2018-11-06T00:30:05.851Z,163.87
2018-11-06T00:32:09.813Z,739.13
2018-11-06T00:34:14.104Z,444.60
2018-11-06T00:36:20.618Z,793.57
2018-11-06T00:38:24.611Z,956.13
2018-11-06T00:40:28.680Z,233.87
2018-11-06T00:42:32.779Z,180.63
2018-11-06T00:44:37.327Z,288.57
2018-11-06T00:46:41.461Z,67.30
2018-11-06T00:48:45.652Z,180.97
2018-11-06T00:50:51.651Z,82.57
2018-11-06T00:52:55.706Z,77.20
2018-11-06T00:54:59.764Z,84.83
2018-11-06T00:57:03.795Z,194.17
2018-11-06T00:59:09.773Z,150.80
2018-11-06T01:01:13.849Z,202.13
2018-11-06T01:03:17.800Z,170.17
2018-11-06T01:05:21.798Z,206.73
2018-11-06T01:07:26.955Z,498.47
2018-11-06T01:09:30.938Z,500.90
2018-11-06T01:11:34.897Z,363.67
2018-11-06T01:13:38.962Z,287.63
2018-11-06T01:15:43.036Z,440.57
2018-11-06T01:17:48.513Z,312.80
2018-11-06T01:19:52.495Z,311.37
2018-11-06T01:21:56.612Z,295.63
2018-11-06T01:24:00.713Z,439.10
2018-11-06T01:26:05.842Z,426.47
2018-11-06T01:28:09.931Z,557.93
2018-11-06T01:30:21.685Z,427.43
2018-11-06T01:32:25.998Z,399.27
2018-11-06T01:34:30.020Z,752.97
2018-11-06T01:36:34.306Z,601.53
2018-11-06T01:38:38.351Z,432.57
2018-11-06T01:40:42.760Z,404.13
2018-11-06T01:42:47.454Z,447.73
2018-11-06T01:44:51.572Z,479.77
2018-11-06T01:47:01.155Z,468.83
2018-11-06T01:49:05.256Z,561.07
2018-11-06T01:51:09.291Z,367.10
2018-11-06T01:53:13.397Z,440.77
2018-11-06T01:55:17.719Z,658.37
2018-11-06T01:57:22.354Z,633.27
2018-11-06T01:59:26.317Z,579.07
2018-11-06T02:01:30.667Z,618.13
2018-11-06T02:03:34.671Z,585.60
2018-11-06T02:05:38.638Z,650.43
2018-11-06T02:07:44.337Z,426.80
2018-11-06T02:09:48.388Z,493.87
2018-11-06T02:11:52.502Z,538.70
2018-11-06T02:13:57.283Z,485.87
2018-11-06T02:16:01.694Z,463.00
2018-11-06T02:18:06.033Z,489.17
2018-11-06T02:20:11.064Z,461.93
2018-11-06T02:22:15.321Z,348.27
2018-11-06T02:24:19.345Z,349.57
2018-11-06T02:26:24.441Z,327.40
2018-11-06T02:28:32.075Z,282.23
2018-11-06T02:30:36.489Z,413.60
2018-11-06T02:32:41.072Z,309.20
2018-11-06T02:34:51.658Z,364.60
2018-11-06T02:37:00.730Z,362.93
2018-11-06T02:39:07.311Z,401.20
2018-11-06T02:41:13.520Z,448.70
2018-11-06T02:43:19.728Z,358.47
2018-11-06T02:45:36.318Z,214.93
2018-11-06T02:47:41.023Z,301.93
2018-11-06T02:49:45.143Z,67.30
2018-11-06T02:51:50.491Z,50.00
2018-11-06T02:53:54.676Z,38.70
2018-11-06T02:56:00.648Z,45.70
2018-11-06T02:58:06.721Z,38.30
2018-11-06T03:00:13.917Z,37.77
2018-11-06T03:02:18.528Z,36.00
2018-11-06T03:04:22.529Z,35.60
2018-11-06T03:06:27.019Z,36.70
2018-11-06T03:08:31.203Z,38.23
2018-11-06T03:10:35.242Z,34.87
2018-11-06T03:12:42.038Z,33.97
2018-11-06T03:14:46.236Z,33.90
2018-11-06T03:16:50.585Z,28.03
2018-11-06T03:18:54.835Z,29.20
2018-11-06T03:21:00.256Z,30.07
2018-11-06T03:23:04.288Z,29.60
2018-11-06T03:25:08.488Z,34.13
2018-11-06T03:27:14.301Z,109.83
2018-11-06T03:29:19.922Z,281.33
2018-11-06T03:31:26.542Z,507.67
2018-11-06T03:33:30.641Z,51.73
2018-11-06T03:35:34.839Z,32.07
2018-11-06T03:37:39.169Z,49.27
2018-11-06T03:39:43.118Z,154.93
2018-11-06T03:41:47.064Z,405.03
2018-11-06T03:43:51.054Z,263.93
2018-11-06T03:45:55.052Z,286.20
2018-11-06T03:47:59.520Z,409.33
2018-11-06T03:50:03.516Z,334.63
2018-11-06T03:52:07.580Z,348.00
2018-11-06T03:54:11.563Z,407.17
2018-11-06T03:56:15.933Z,278.80
2018-11-06T03:58:19.871Z,425.63
2018-11-06T04:00:24.870Z,401.07
2018-11-06T04:02:33.250Z,345.30
2018-11-06T04:04:37.673Z,326.77
2018-11-06T04:06:42.266Z,564.00
2018-11-06T04:08:46.447Z,296.57
2018-11-06T04:10:50.496Z,360.20
2018-11-06T04:12:54.488Z,305.90
2018-11-06T04:15:00.500Z,255.40
2018-11-06T04:17:04.492Z,251.97
2018-11-06T04:19:09.819Z,213.80
2018-11-06T04:21:14.211Z,366.93
2018-11-06T04:23:18.464Z,318.83
2018-11-06T04:25:22.464Z,145.70
2018-11-06T04:27:27.841Z,206.40
2018-11-06T04:29:32.469Z,110.80
2018-11-06T04:31:37.425Z,122.60
2018-11-06T04:33:41.779Z,149.23
2018-11-06T04:35:45.796Z,32.40
2018-11-06T04:37:49.732Z,29.43
2018-11-06T04:39:53.713Z,30.37
2018-11-06T04:41:58.121Z,30.67
2018-11-06T04:44:02.215Z,25.23
2018-11-06T04:46:06.396Z,26.53
2018-11-06T04:48:11.592Z,30.20
2018-11-06T04:50:15.770Z,25.33
2018-11-06T04:52:19.742Z,25.47
2018-11-06T04:54:24.412Z,28.60
2018-11-06T04:56:29.580Z,35.70
2018-11-06T04:58:33.820Z,86.43
2018-11-06T05:00:38.141Z,147.97
2018-11-06T05:02:42.562Z,37.07
2018-11-06T05:04:47.688Z,29.97
2018-11-06T05:06:51.731Z,65.97
2018-11-06T05:08:55.776Z,74.47
2018-11-06T05:10:59.881Z,114.37
2018-11-06T05:13:04.056Z,160.70
2018-11-06T05:15:15.005Z,141.83
2018-11-06T05:17:19.054Z,105.47
2018-11-06T05:19:23.097Z,210.17
2018-11-06T05:21:27.865Z,333.87
2018-11-06T05:23:33.109Z,154.67
2018-11-06T05:25:37.324Z,155.17
2018-11-06T05:27:41.260Z,221.83
2018-11-06T05:29:45.351Z,95.47
2018-11-06T05:31:50.696Z,42.87
2018-11-06T05:33:54.758Z,34.47
2018-11-06T05:35:58.846Z,31.23
2018-11-06T05:38:04.084Z,33.53
2018-11-06T05:41:22.071Z,29.70
2018-11-06T05:43:26.239Z,28.77
2018-11-06T05:45:31.220Z,28.50
2018-11-06T05:47:35.852Z,28.50
2018-11-06T05:49:39.970Z,27.10
2018-11-06T05:51:44.331Z,31.80
2018-11-06T05:53:50.412Z,29.80
2018-11-06T05:55:54.464Z,29.60
2018-11-06T05:57:58.834Z,33.20
2018-11-06T06:00:03.932Z,26.03
2018-11-06T06:02:08.671Z,23.27
2018-11-06T06:04:13.921Z,40.07
2018-11-06T06:06:17.937Z,53.60
2018-11-06T06:08:22.042Z,47.70
2018-11-06T06:10:26.470Z,35.40
2018-11-06T06:12:30.544Z,38.63
2018-11-06T06:14:35.176Z,46.10
2018-11-06T06:16:39.517Z,39.03
2018-11-06T06:18:49.024Z,37.67
2018-11-06T06:20:53.034Z,36.90
2018-11-06T06:22:57.588Z,34.23
2018-11-06T06:25:03.382Z,40.30
2018-11-06T06:27:07.515Z,37.37
2018-11-06T06:29:11.901Z,36.70
2018-11-06T06:31:17.816Z,40.67
2018-11-06T06:33:21.769Z,37.10
2018-11-06T06:35:26.587Z,31.87
2018-11-06T06:37:30.844Z,31.20
2018-11-06T06:39:36.038Z,30.77
2018-11-06T06:41:44.866Z,31.47
2018-11-06T06:43:48.877Z,33.83
2018-11-06T06:45:53.117Z,31.80
2018-11-06T06:47:57.411Z,34.37
2018-11-06T06:50:02.505Z,29.07
2018-11-06T06:52:06.951Z,34.03
2018-11-06T06:54:11.095Z,35.13
2018-11-06T06:56:16.511Z,32.10
2018-11-06T06:58:21.902Z,30.10
2018-11-06T07:00:28.362Z,29.60
2018-11-06T07:02:34.044Z,28.27
2018-11-06T07:04:38.222Z,27.97
2018-11-06T07:06:43.088Z,33.20
2018-11-06T07:08:47.810Z,31.67
2018-11-06T07:10:53.417Z,29.97
2018-11-06T07:13:00.568Z,31.43
2018-11-06T07:15:06.183Z,31.70
2018-11-06T07:17:11.575Z,33.57
2018-11-06T07:21:55.148Z,30.13
2018-11-06T07:23:59.136Z,30.13
2018-11-06T07:26:04.683Z,29.93
2018-11-06T07:28:08.737Z,28.83
2018-11-06T07:30:23.268Z,29.37
2018-11-06T07:32:28.621Z,26.10
2018-11-06T07:34:34.887Z,27.87
2018-11-06T07:36:39.585Z,29.77
2018-11-06T07:38:43.986Z,28.73
2018-11-06T07:40:48.166Z,27.37
2018-11-06T07:42:52.364Z,26.73
2018-11-06T07:44:58.993Z,26.03
2018-11-06T07:47:06.623Z,30.73
2018-11-06T07:49:22.642Z,27.30
2018-11-06T07:51:30.667Z,26.17
2018-11-06T07:53:35.378Z,25.57
2018-11-06T07:55:39.467Z,27.60
2018-11-06T07:57:44.850Z,27.17
2018-11-06T07:59:48.974Z,31.90
2018-11-06T08:01:53.264Z,34.57
2018-11-06T08:03:58.098Z,33.77
2018-11-06T08:06:03.171Z,34.50
2018-11-06T08:08:08.767Z,34.43
2018-11-06T08:10:13.699Z,34.43
2018-11-06T08:12:17.965Z,35.50
2018-11-06T08:14:21.972Z,36.00
2018-11-06T08:16:27.283Z,36.67
2018-11-06T08:18:40.021Z,37.63
2018-11-06T08:20:49.341Z,38.50
2018-11-06T08:22:54.666Z,36.63
2018-11-06T08:24:58.742Z,32.60
2018-11-06T08:27:02.811Z,33.47
2018-11-06T08:29:07.740Z,32.13
2018-11-06T08:31:13.233Z,35.17
2018-11-06T08:33:16.789Z,32.57
2018-11-06T08:35:21.582Z,33.93
2018-11-06T08:37:26.635Z,32.33
2018-11-06T08:39:30.716Z,35.17
2018-11-06T08:41:35.266Z,36.63
2018-11-06T08:43:39.626Z,35.87
2018-11-06T08:45:43.697Z,38.93
2018-11-06T08:47:48.786Z,37.40
2018-11-06T08:49:54.649Z,33.37
2018-11-06T08:51:59.478Z,34.43
2018-11-06T08:54:03.728Z,36.07
2018-11-06T08:56:08.410Z,35.07
2018-11-06T08:58:13.631Z,38.13
2018-11-06T09:02:31.832Z,32.47
2018-11-06T09:04:37.213Z,36.33
2018-11-06T09:06:42.600Z,34.80
2018-11-06T09:08:47.399Z,32.83
2018-11-06T09:10:51.825Z,38.93
2018-11-06T09:12:58.432Z,36.03
2018-11-06T09:15:02.480Z,33.70
2018-11-06T09:17:06.711Z,33.70
2018-11-06T09:19:11.105Z,36.57
2018-11-06T09:21:15.159Z,35.23
2018-11-06T09:23:20.815Z,32.27
2018-11-06T09:25:25.367Z,34.50
2018-11-06T09:27:30.439Z,33.87
2018-11-06T09:29:35.500Z,31.97
2018-11-06T09:31:39.805Z,40.87
2018-11-06T09:33:44.828Z,31.47
2018-11-06T09:35:48.937Z,32.93
2018-11-06T09:37:53.443Z,30.73
2018-11-06T09:40:02.817Z,33.07
2018-11-06T09:42:07.953Z,34.17
2018-11-06T09:44:13.437Z,31.10
2018-11-06T09:46:18.269Z,32.30
2018-11-06T09:48:22.359Z,36.20
2018-11-06T09:50:28.862Z,32.10
2018-11-06T09:52:34.664Z,31.17
2018-11-06T09:54:38.701Z,33.13
2018-11-06T09:56:46.310Z,32.93
2018-11-06T09:58:50.509Z,32.13
2018-11-06T10:00:54.763Z,32.13
2018-11-06T10:03:00.055Z,32.07
2018-11-06T10:05:07.802Z,34.30
2018-11-06T10:07:12.251Z,30.87
2018-11-06T10:09:19.017Z,28.87
2018-11-06T10:11:24.808Z,28.33
2018-11-06T10:13:29.337Z,28.50
2018-11-06T10:15:34.804Z,28.80
2018-11-06T10:17:40.965Z,32.80
2018-11-06T10:19:48.567Z,29.00
2018-11-06T10:21:53.213Z,26.40
2018-11-06T10:23:57.257Z,31.67
2018-11-06T10:26:01.398Z,30.33
2018-11-06T10:28:05.785Z,25.13
2018-11-06T10:30:19.339Z,26.70
2018-11-06T10:32:24.013Z,27.20
2018-11-06T10:34:30.560Z,28.73
2018-11-06T10:36:34.602Z,26.97
2018-11-06T10:38:38.684Z,28.90
2018-11-06T10:40:47.200Z,28.40
2018-11-06T10:42:52.074Z,28.70
2018-11-06T10:44:59.047Z,30.23
2018-11-06T10:47:05.380Z,30.23
2018-11-06T10:49:13.667Z,31.03
2018-11-06T10:51:18.303Z,33.40
2018-11-06T10:53:25.517Z,28.37
2018-11-06T10:55:31.018Z,25.60
2018-11-06T10:57:35.669Z,30.23
2018-11-06T10:59:41.377Z,27.93
2018-11-06T11:01:53.897Z,26.77
2018-11-06T11:04:03.554Z,31.10
2018-11-06T11:06:08.399Z,27.93
2018-11-06T11:08:14.733Z,29.47
2018-11-06T11:10:18.835Z,27.67
2018-11-06T11:12:24.807Z,28.97
2018-11-06T11:14:32.122Z,26.40
2018-11-06T11:16:36.296Z,25.60
2018-11-06T11:18:41.638Z,27.80
2018-11-06T11:23:03.027Z,26.87
2018-11-06T11:25:13.772Z,23.30
2018-11-06T11:27:17.973Z,24.50
2018-11-06T11:29:22.182Z,23.83
2018-11-06T11:31:26.747Z,22.07
2018-11-06T11:33:32.349Z,22.40
2018-11-06T11:35:36.593Z,23.60
2018-11-06T11:37:41.467Z,24.13
2018-11-06T11:39:47.832Z,25.80
2018-11-06T11:41:51.881Z,26.47
2018-11-06T11:43:56.332Z,24.27
2018-11-06T11:46:00.732Z,22.87
2018-11-06T11:48:04.841Z,28.77
2018-11-06T11:50:10.416Z,25.83
2018-11-06T11:52:15.615Z,24.40
2018-11-06T11:54:20.506Z,27.10
2018-11-06T11:56:25.321Z,20.50
2018-11-06T11:58:30.835Z,22.17
2018-11-06T12:00:38.916Z,23.13
2018-11-06T12:02:43.257Z,23.80
2018-11-06T12:04:47.767Z,23.63
2018-11-06T12:06:53.749Z,22.70
2018-11-06T12:08:57.896Z,26.13
2018-11-06T12:11:02.039Z,25.47
2018-11-06T12:13:07.517Z,30.40
2018-11-06T12:17:27.257Z,23.20
2018-11-06T12:19:32.701Z,24.40
2018-11-06T12:21:36.817Z,23.80
2018-11-06T12:23:41.190Z,21.37
2018-11-06T12:25:49.106Z,20.63
2018-11-06T12:27:53.016Z,21.43
2018-11-06T12:29:59.452Z,21.53
2018-11-06T12:32:03.396Z,22.73
2018-11-06T12:34:11.435Z,23.10
2018-11-06T12:36:16.337Z,20.13
2018-11-06T12:38:21.497Z,19.13
2018-11-06T12:40:25.519Z,19.93
2018-11-06T12:42:35.838Z,26.23
2018-11-06T12:44:39.904Z,19.33
2018-11-06T12:46:44.834Z,20.63
2018-11-06T12:48:49.411Z,19.40
2018-11-06T12:50:55.243Z,20.70
2018-11-06T12:53:03.763Z,18.07
2018-11-06T12:55:09.365Z,20.00
2018-11-06T12:57:14.655Z,21.53
2018-11-06T12:59:21.177Z,18.70
2018-11-06T13:01:30.239Z,23.23
2018-11-06T13:03:34.400Z,20.27
2018-11-06T13:05:38.767Z,17.57
2018-11-06T13:07:43.548Z,18.57
2018-11-06T13:09:49.601Z,19.77
2018-11-06T13:11:55.457Z,18.63
2018-11-06T13:13:59.511Z,18.70
2018-11-06T13:16:04.778Z,17.43
2018-11-06T13:18:09.748Z,17.77
2018-11-06T13:20:16.902Z,16.17
2018-11-06T13:22:21.178Z,16.50
2018-11-06T13:24:25.271Z,17.50
2018-11-06T13:26:31.046Z,15.77
2018-11-06T13:28:36.133Z,18.87
2018-11-06T13:30:44.789Z,19.23
2018-11-06T13:32:49.669Z,18.83
2018-11-06T13:40:18.252Z,18.43
2018-11-06T13:42:24.644Z,16.03
2018-11-06T13:44:28.880Z,17.73
2018-11-06T13:46:32.699Z,18.20
2018-11-06T13:48:36.742Z,17.37
2018-11-06T13:50:41.537Z,16.43
2018-11-06T13:52:48.065Z,15.87
2018-11-06T13:54:52.200Z,17.47
2018-11-06T13:56:56.345Z,14.43
2018-11-06T13:59:00.863Z,20.97
2018-11-06T14:01:06.190Z,15.43
2018-11-06T14:03:10.193Z,14.40
2018-11-06T14:05:18.107Z,15.43
2018-11-06T14:07:22.447Z,17.67
2018-11-06T14:09:27.588Z,14.73
2018-11-06T14:11:33.276Z,16.97
2018-11-06T14:13:44.328Z,13.40
2018-11-06T14:15:49.376Z,16.00
2018-11-06T14:17:56.208Z,17.13
2018-11-06T14:20:01.535Z,15.20
2018-11-06T14:22:11.262Z,16.90
2018-11-06T14:24:17.215Z,16.87
2018-11-06T14:26:23.012Z,18.13
2018-11-06T14:28:27.098Z,19.67
2018-11-06T14:30:31.250Z,28.13
2018-11-06T14:32:35.638Z,17.53
2018-11-06T14:34:41.333Z,20.77
2018-11-06T14:36:45.486Z,16.50
2018-11-06T14:38:52.336Z,18.57
2018-11-06T14:40:58.091Z,18.80
2018-11-06T14:43:02.133Z,19.07
2018-11-06T14:45:09.004Z,17.13
2018-11-06T14:47:15.215Z,18.30
2018-11-06T14:49:20.108Z,18.73
2018-11-06T14:51:24.102Z,19.90
2018-11-06T14:53:29.650Z,16.63
2018-11-06T14:55:35.789Z,16.90
2018-11-06T14:57:40.919Z,20.13
2018-11-06T15:01:55.547Z,20.00
2018-11-06T15:03:59.937Z,17.17
2018-11-06T15:06:04.013Z,18.27
2018-11-06T15:08:10.495Z,19.17
2018-11-06T15:10:14.647Z,19.70
2018-11-06T15:12:18.742Z,16.87
2018-11-06T15:14:22.947Z,22.67
2018-11-06T15:16:27.160Z,24.60
2018-11-06T15:18:31.252Z,21.57
2018-11-06T15:20:35.350Z,24.30
2018-11-06T15:22:39.810Z,19.37
2018-11-06T15:24:44.316Z,24.00
2018-11-06T15:26:49.204Z,21.13
2018-11-06T15:28:54.261Z,22.00
2018-11-06T15:31:00.781Z,20.33
2018-11-06T15:35:25.562Z,21.73
2018-11-06T15:37:30.121Z,22.70
2018-11-06T15:39:36.284Z,21.63
2018-11-06T15:41:41.831Z,23.97
2018-11-06T15:43:48.488Z,21.50
2018-11-06T15:45:56.306Z,21.60
2018-11-06T15:48:04.666Z,21.60
2018-11-06T15:50:12.646Z,26.83
2018-11-06T15:52:18.378Z,23.63
2018-11-06T15:54:25.933Z,21.50
2018-11-06T15:56:34.547Z,24.93
2018-11-06T15:58:41.679Z,23.90
2018-11-06T16:00:46.711Z,23.63
2018-11-06T16:02:54.744Z,19.60
2018-11-06T16:05:01.386Z,22.73
2018-11-06T16:07:07.013Z,19.63
2018-11-06T16:09:14.478Z,24.53
2018-11-06T16:11:25.023Z,14.50
2018-11-06T16:13:30.537Z,18.90
2018-11-06T16:15:36.243Z,15.17
2018-11-06T16:17:43.108Z,14.00
2018-11-06T16:19:51.053Z,17.77
2018-11-06T16:21:55.471Z,17.43
2018-11-06T16:24:02.553Z,16.63
2018-11-06T16:26:13.603Z,16.27
2018-11-06T16:28:17.997Z,18.73
2018-11-06T16:30:27.748Z,16.17
2018-11-06T16:32:41.432Z,15.97
2018-11-06T16:34:47.463Z,13.93
2018-11-06T16:36:53.378Z,15.23
2018-11-06T16:39:00.971Z,15.33
2018-11-06T16:41:10.769Z,17.23
2018-11-06T16:43:15.751Z,15.27
2018-11-06T16:45:46.505Z,15.37
2018-11-06T16:47:54.551Z,15.13
2018-11-06T16:50:07.446Z,14.17
2018-11-06T16:52:21.202Z,17.10
2018-11-06T16:54:50.671Z,19.60
2018-11-06T16:57:18.810Z,19.43
2018-11-06T16:59:32.154Z,15.30
2018-11-06T17:02:54.510Z,17.20
2018-11-06T17:05:07.928Z,17.43
2018-11-06T17:07:27.811Z,21.47
2018-11-06T17:09:33.210Z,18.07
2018-11-06T17:11:50.170Z,19.37
2018-11-06T17:13:56.165Z,21.03
2018-11-06T17:16:05.164Z,22.97
2018-11-06T17:18:13.199Z,28.17
2018-11-06T17:20:35.282Z,33.03
2018-11-06T17:22:46.204Z,25.10
2018-11-06T17:24:52.208Z,25.40
2018-11-06T17:26:59.771Z,20.33
2018-11-06T17:29:13.030Z,20.23
2018-11-06T17:31:21.534Z,15.20
2018-11-06T17:33:29.257Z,16.57
2018-11-06T17:35:36.313Z,15.07
2018-11-06T17:37:42.648Z,20.60
2018-11-06T17:39:53.402Z,18.93
2018-11-06T17:41:59.248Z,18.87
2018-11-06T17:44:13.284Z,18.50
2018-11-06T17:46:29.924Z,20.33
2018-11-06T17:48:39.477Z,16.10
2018-11-06T17:50:45.876Z,19.70
2018-11-06T17:52:52.390Z,20.00
2018-11-06T17:55:02.996Z,21.43
2018-11-06T17:57:10.369Z,18.50
2018-11-06T17:59:23.014Z,40.50
2018-11-06T18:01:28.011Z,25.63
2018-11-06T18:03:32.605Z,19.50
2018-11-06T18:05:39.932Z,22.27
2018-11-06T18:07:45.356Z,23.17
2018-11-06T18:09:53.626Z,24.83
2018-11-06T18:12:09.797Z,22.90
2018-11-06T18:14:21.584Z,26.43
2018-11-06T18:16:27.998Z,25.77
2018-11-06T18:18:33.279Z,26.23
2018-11-06T18:20:46.790Z,30.17
2018-11-06T18:22:55.284Z,27.87
2018-11-06T18:25:06.658Z,26.90
2018-11-06T18:27:12.480Z,22.87
2018-11-06T18:29:19.446Z,25.67
2018-11-06T18:31:37.705Z,34.03
2018-11-06T18:33:44.503Z,26.80
2018-11-06T18:35:51.442Z,28.57
2018-11-06T18:38:00.368Z,24.07
2018-11-06T18:40:27.436Z,35.40
2018-11-06T18:42:37.651Z,46.37
2018-11-06T18:44:43.491Z,66.50
2018-11-06T18:46:53.092Z,45.77
2018-11-06T18:49:02.796Z,40.27
2018-11-06T18:51:20.024Z,51.90
2018-11-06T18:53:25.596Z,43.37
2018-11-06T18:55:36.729Z,47.23
2018-11-06T18:57:49.261Z,41.00
2018-11-06T18:59:55.150Z,44.17
2018-11-06T19:02:09.528Z,36.63
2018-11-06T19:04:15.957Z,30.37
2018-11-06T19:06:21.505Z,30.70
2018-11-06T19:08:29.250Z,32.33
2018-11-06T19:10:35.846Z,36.60
2018-11-06T19:12:46.965Z,35.63
2018-11-06T19:14:57.772Z,38.10
2018-11-06T19:17:08.391Z,32.43
2018-11-06T19:21:44.319Z,35.13
2018-11-06T19:23:51.018Z,42.40
2018-11-06T19:25:58.692Z,40.60
2018-11-06T19:28:09.504Z,39.13
2018-11-06T19:30:25.163Z,39.83
2018-11-06T19:32:32.744Z,39.43
2018-11-06T19:34:40.848Z,37.33
2018-11-06T19:36:47.366Z,36.33
2018-11-06T19:38:54.872Z,38.57
2018-11-06T19:40:59.776Z,38.43
2018-11-06T19:43:05.251Z,45.40
2018-11-06T19:45:22.374Z,51.47
2018-11-06T19:47:27.405Z,49.53
2018-11-06T19:49:34.775Z,56.10
2018-11-06T19:51:39.668Z,54.50
2018-11-06T19:53:44.590Z,57.50
2018-11-06T19:55:51.333Z,61.40
2018-11-06T19:57:59.927Z,60.50
2018-11-06T20:00:17.579Z,58.30
2018-11-06T20:02:23.118Z,64.57
2018-11-06T20:04:30.372Z,65.33
2018-11-06T20:06:35.406Z,65.90
2018-11-06T20:08:42.779Z,75.17
2018-11-06T20:10:58.793Z,78.90
2018-11-06T20:13:06.034Z,78.40
2018-11-06T20:15:27.402Z,73.03
2018-11-06T20:17:39.243Z,75.77
2018-11-06T20:19:44.375Z,71.80
2018-11-06T20:21:51.058Z,71.33
2018-11-06T20:24:01.435Z,73.70
2018-11-06T20:26:08.070Z,74.63
2018-11-06T20:28:12.985Z,69.33
2018-11-06T20:30:27.763Z,70.33
2018-11-06T20:32:39.247Z,70.13
2018-11-06T20:34:47.572Z,76.07
2018-11-06T20:36:55.099Z,76.37
2018-11-06T20:39:10.589Z,74.87
2018-11-06T20:41:18.851Z,69.30
2018-11-06T20:43:26.311Z,67.63
2018-11-06T20:45:37.695Z,70.77
2018-11-06T20:47:45.632Z,70.17
2018-11-06T20:49:56.563Z,69.43
2018-11-06T20:52:01.218Z,69.97
2018-11-06T20:54:06.188Z,67.30
2018-11-06T20:56:17.260Z,71.03
2018-11-06T20:58:25.068Z,66.10
2018-11-06T21:00:35.054Z,67.63
2018-11-06T21:02:42.494Z,64.20
2018-11-06T21:04:46.642Z,67.87
2018-11-06T21:06:54.499Z,61.03
2018-11-06T21:09:02.203Z,63.40
2018-11-06T21:11:07.785Z,66.23
2018-11-06T21:13:12.057Z,62.60
2018-11-06T21:15:19.517Z,60.73
2018-11-06T21:17:46.685Z,57.63
2018-11-06T21:19:54.502Z,62.57
2018-11-06T21:22:02.082Z,58.53
2018-11-06T21:24:09.184Z,58.03
2018-11-06T21:26:14.562Z,57.50
2018-11-06T21:28:20.309Z,56.17
2018-11-06T21:30:27.585Z,61.20
2018-11-06T21:32:36.082Z,60.23
2018-11-06T21:34:40.943Z,59.33
2018-11-06T21:36:47.204Z,59.73
2018-11-06T21:39:32.191Z,59.37
2018-11-06T21:43:50.421Z,64.23
2018-11-06T21:45:56.316Z,67.43
2018-11-06T21:48:02.723Z,69.60
2018-11-06T21:50:09.641Z,74.73
2018-11-06T21:52:22.337Z,69.93
2018-11-06T21:54:27.458Z,84.87
2018-11-06T21:56:35.618Z,73.00
2018-11-06T21:58:46.347Z,74.40
2018-11-06T22:00:53.122Z,91.47
2018-11-06T22:02:59.757Z,83.03
2018-11-06T22:05:17.505Z,96.37
2018-11-06T22:07:23.604Z,120.00
2018-11-06T22:09:36.505Z,126.57
2018-11-06T22:11:46.226Z,121.80
2018-11-06T22:13:51.691Z,100.40
2018-11-06T22:15:57.969Z,96.40
2018-11-06T22:18:06.612Z,104.40
2018-11-06T22:20:19.677Z,139.53
2018-11-06T22:22:31.305Z,135.07
2018-11-06T22:24:40.464Z,153.50
2018-11-06T22:26:49.755Z,137.70
2018-11-06T22:28:57.449Z,202.13
2018-11-06T22:31:05.121Z,169.63
2018-11-06T22:33:15.733Z,161.00
2018-11-06T22:35:20.920Z,212.83
2018-11-06T22:37:28.172Z,215.03
2018-11-06T22:41:56.985Z,190.63
2018-11-06T22:44:02.091Z,273.60
2018-11-06T22:46:18.470Z,368.00
2018-11-06T22:48:41.190Z,202.77
2018-11-06T22:50:48.387Z,294.30
2018-11-06T22:52:59.676Z,337.37
2018-11-06T22:55:07.005Z,323.63
2018-11-06T22:57:13.114Z,131.17
2018-11-06T22:59:20.159Z,184.97
2018-11-06T23:01:26.439Z,189.90
2018-11-06T23:03:34.844Z,196.10
2018-11-06T23:05:44.519Z,279.47
2018-11-06T23:07:55.988Z,354.27
2018-11-06T23:10:02.855Z,331.37
2018-11-06T23:12:07.420Z,234.73
2018-11-06T23:14:12.860Z,230.10
2018-11-06T23:16:20.781Z,329.80
2018-11-06T23:18:28.392Z,401.97
2018-11-06T23:20:36.037Z,352.13
2018-11-06T23:22:42.137Z,353.30
2018-11-06T23:24:52.908Z,325.30
2018-11-06T23:27:04.549Z,316.87
2018-11-06T23:29:24.652Z,443.47
2018-11-06T23:31:29.921Z,507.47
2018-11-06T23:33:34.922Z,450.40
2018-11-06T23:35:39.424Z,461.87
2018-11-06T23:37:45.679Z,353.43
2018-11-06T23:39:53.529Z,265.87
2018-11-06T23:41:58.409Z,478.70
2018-11-06T23:44:04.183Z,541.10
2018-11-06T23:46:08.871Z,500.93
2018-11-06T23:48:15.159Z,460.10
2018-11-06T23:50:19.530Z,505.77
2018-11-06T23:52:23.851Z,438.90
2018-11-06T23:54:31.793Z,617.23
2018-11-06T23:56:36.747Z,362.77
2018-11-06T23:58:43.874Z,699.40
